sensor_id;sensor_type;location;lat;lon;timestamp;pressure;altitude;pressure_sealevel;temperature;humidity
75650;BME280;64245;51.282;22.494;2023-06-10T00:02:29;98978.16;;;16.55;95.12
75650;BME280;64245;51.282;22.494;2023-06-10T00:04:55;98948.97;;;16.28;94.71
75650;BME280;64245;51.282;22.494;2023-06-10T00:07:22;98972.75;;;16.41;91.86
75650;BME280;64245;51.282;22.494;2023-06-10T00:09:48;98968.72;;;16.51;90.76
75650;BME280;64245;51.282;22.494;2023-06-10T00:12:15;98970.78;;;16.64;89.68
75650;BME280;64245;51.282;22.494;2023-06-10T00:14:42;98922.47;;;16.30;90.14
75650;BME280;64245;51.282;22.494;2023-06-10T00:17:08;98963.56;;;16.71;88.58
75650;BME280;64245;51.282;22.494;2023-06-10T00:19:34;98934.47;;;16.57;88.45
75650;BME280;64245;51.282;22.494;2023-06-10T00:22:01;98966.00;;;16.66;89.27
75650;BME280;64245;51.282;22.494;2023-06-10T00:24:26;98950.34;;;16.53;88.98
75650;BME280;64245;51.282;22.494;2023-06-10T00:26:52;98970.69;;;16.72;88.63
75650;BME280;64245;51.282;22.494;2023-06-10T00:29:18;98933.75;;;16.48;89.19
75650;BME280;64245;51.282;22.494;2023-06-10T00:31:44;98943.78;;;16.48;89.87
75650;BME280;64245;51.282;22.494;2023-06-10T00:34:10;98963.66;;;16.63;89.52
75650;BME280;64245;51.282;22.494;2023-06-10T00:36:36;98961.28;;;16.60;90.27
75650;BME280;64245;51.282;22.494;2023-06-10T00:39:02;98964.56;;;16.55;91.26
75650;BME280;64245;51.282;22.494;2023-06-10T00:41:30;98971.44;;;16.51;92.04
75650;BME280;64245;51.282;22.494;2023-06-10T00:43:58;98931.34;;;16.24;93.26
75650;BME280;64245;51.282;22.494;2023-06-10T00:46:25;98954.69;;;16.33;93.85
75650;BME280;64245;51.282;22.494;2023-06-10T00:48:52;98955.34;;;16.20;95.19
75650;BME280;64245;51.282;22.494;2023-06-10T00:51:19;98943.44;;;16.21;94.29
75650;BME280;64245;51.282;22.494;2023-06-10T00:53:44;98971.00;;;16.33;94.42
75650;BME280;64245;51.282;22.494;2023-06-10T00:56:11;98963.50;;;16.20;94.86
75650;BME280;64245;51.282;22.494;2023-06-10T00:58:37;98974.09;;;16.15;95.26
75650;BME280;64245;51.282;22.494;2023-06-10T01:01:03;98955.00;;;16.09;95.60
75650;BME280;64245;51.282;22.494;2023-06-10T01:03:32;98980.47;;;16.22;95.40
75650;BME280;64245;51.282;22.494;2023-06-10T01:06:18;98942.16;;;15.88;96.29
75650;BME280;64245;51.282;22.494;2023-06-10T01:08:56;98975.22;;;16.06;96.61
75650;BME280;64245;51.282;22.494;2023-06-10T01:11:30;98989.47;;;16.08;97.84
75650;BME280;64245;51.282;22.494;2023-06-10T01:14:00;98982.53;;;15.91;97.92
75650;BME280;64245;51.282;22.494;2023-06-10T01:16:27;98979.81;;;15.91;98.47
75650;BME280;64245;51.282;22.494;2023-06-10T01:18:53;98961.69;;;15.69;100.00
75650;BME280;64245;51.282;22.494;2023-06-10T01:21:23;98990.06;;;15.81;99.55
75650;BME280;64245;51.282;22.494;2023-06-10T01:23:52;98982.88;;;15.73;100.00
75650;BME280;64245;51.282;22.494;2023-06-10T01:26:23;99004.63;;;15.88;99.84
75650;BME280;64245;51.282;22.494;2023-06-10T01:29:01;98987.00;;;15.84;99.34
75650;BME280;64245;51.282;22.494;2023-06-10T01:31:38;99001.44;;;15.99;98.52
75650;BME280;64245;51.282;22.494;2023-06-10T01:34:16;99010.03;;;15.88;100.00
75650;BME280;64245;51.282;22.494;2023-06-10T01:36:48;99010.59;;;15.83;100.00
75650;BME280;64245;51.282;22.494;2023-06-10T01:39:18;99011.63;;;15.82;100.00
75650;BME280;64245;51.282;22.494;2023-06-10T01:41:49;99017.53;;;15.86;99.66
75650;BME280;64245;51.282;22.494;2023-06-10T01:44:20;99005.47;;;15.88;99.26
75650;BME280;64245;51.282;22.494;2023-06-10T01:46:47;99006.13;;;15.91;98.79
75650;BME280;64245;51.282;22.494;2023-06-10T01:49:13;98998.22;;;15.81;99.28
75650;BME280;64245;51.282;22.494;2023-06-10T01:51:39;98978.09;;;15.75;100.00
75650;BME280;64245;51.282;22.494;2023-06-10T01:54:05;99010.16;;;15.95;99.05
75650;BME280;64245;51.282;22.494;2023-06-10T01:56:32;98987.72;;;15.78;99.93
75650;BME280;64245;51.282;22.494;2023-06-10T01:58:58;98974.91;;;15.72;100.00
75650;BME280;64245;51.282;22.494;2023-06-10T02:01:26;98980.16;;;15.73;99.65
75650;BME280;64245;51.282;22.494;2023-06-10T02:03:51;98968.81;;;15.70;99.17
75650;BME280;64245;51.282;22.494;2023-06-10T02:06:18;98983.34;;;15.77;99.52
75650;BME280;64245;51.282;22.494;2023-06-10T02:08:44;99001.78;;;15.81;99.72
75650;BME280;64245;51.282;22.494;2023-06-10T02:11:10;99010.41;;;15.85;99.38
75650;BME280;64245;51.282;22.494;2023-06-10T02:13:37;98973.97;;;15.65;98.87
75650;BME280;64245;51.282;22.494;2023-06-10T02:16:18;98997.47;;;15.72;97.90
75650;BME280;64245;51.282;22.494;2023-06-10T02:18:46;98980.41;;;15.64;97.32
75650;BME280;64245;51.282;22.494;2023-06-10T02:21:12;99008.00;;;15.90;96.37
75650;BME280;64245;51.282;22.494;2023-06-10T02:23:38;99016.56;;;15.79;96.89
75650;BME280;64245;51.282;22.494;2023-06-10T02:26:04;99016.78;;;15.77;97.47
75650;BME280;64245;51.282;22.494;2023-06-10T02:28:30;99015.16;;;15.68;97.70
75650;BME280;64245;51.282;22.494;2023-06-10T02:30:56;99023.88;;;15.78;97.60
75650;BME280;64245;51.282;22.494;2023-06-10T02:33:23;99005.59;;;15.58;97.95
75650;BME280;64245;51.282;22.494;2023-06-10T02:35:49;99024.28;;;15.75;97.46
75650;BME280;64245;51.282;22.494;2023-06-10T02:38:16;99021.06;;;15.72;96.58
75650;BME280;64245;51.282;22.494;2023-06-10T02:40:42;99042.63;;;15.88;94.57
75650;BME280;64245;51.282;22.494;2023-06-10T02:43:09;98993.56;;;15.75;94.58
75650;BME280;64245;51.282;22.494;2023-06-10T02:45:34;99030.09;;;15.87;95.44
75650;BME280;64245;51.282;22.494;2023-06-10T02:48:00;99015.09;;;15.76;95.59
75650;BME280;64245;51.282;22.494;2023-06-10T02:50:26;99021.72;;;15.74;95.33
75650;BME280;64245;51.282;22.494;2023-06-10T02:52:52;99032.31;;;15.83;95.62
75650;BME280;64245;51.282;22.494;2023-06-10T02:55:18;99046.56;;;15.85;96.00
75650;BME280;64245;51.282;22.494;2023-06-10T02:57:44;99053.13;;;15.76;97.31
75650;BME280;64245;51.282;22.494;2023-06-10T03:00:10;99049.25;;;15.71;97.37
75650;BME280;64245;51.282;22.494;2023-06-10T03:02:37;99055.63;;;15.78;96.19
75650;BME280;64245;51.282;22.494;2023-06-10T03:05:05;99038.09;;;15.66;96.26
75650;BME280;64245;51.282;22.494;2023-06-10T03:07:31;99063.41;;;15.81;96.27
75650;BME280;64245;51.282;22.494;2023-06-10T03:09:57;99069.59;;;15.75;95.70
75650;BME280;64245;51.282;22.494;2023-06-10T03:12:23;99044.00;;;15.69;95.73
75650;BME280;64245;51.282;22.494;2023-06-10T03:14:49;99062.72;;;15.79;96.17
75650;BME280;64245;51.282;22.494;2023-06-10T03:17:17;99037.16;;;15.59;96.58
75650;BME280;64245;51.282;22.494;2023-06-10T03:19:43;99070.31;;;15.69;95.97
75650;BME280;64245;51.282;22.494;2023-06-10T03:22:11;99068.13;;;15.64;96.84
75650;BME280;64245;51.282;22.494;2023-06-10T03:24:37;99068.97;;;15.65;96.64
75650;BME280;64245;51.282;22.494;2023-06-10T03:27:12;99046.22;;;15.43;96.96
75650;BME280;64245;51.282;22.494;2023-06-10T03:29:39;99080.31;;;15.68;96.53
75650;BME280;64245;51.282;22.494;2023-06-10T03:32:06;99056.84;;;15.52;96.35
75650;BME280;64245;51.282;22.494;2023-06-10T03:34:31;99074.75;;;15.62;96.23
75650;BME280;64245;51.282;22.494;2023-06-10T03:36:58;99061.75;;;15.57;95.82
75650;BME280;64245;51.282;22.494;2023-06-10T03:39:25;99050.56;;;15.52;96.02
75650;BME280;64245;51.282;22.494;2023-06-10T03:41:51;99065.09;;;15.59;95.82
75650;BME280;64245;51.282;22.494;2023-06-10T03:44:17;99083.22;;;15.67;95.95
75650;BME280;64245;51.282;22.494;2023-06-10T03:46:43;99073.03;;;15.69;96.17
75650;BME280;64245;51.282;22.494;2023-06-10T03:49:09;99057.00;;;15.51;96.52
75650;BME280;64245;51.282;22.494;2023-06-10T03:51:36;99060.41;;;15.53;96.41
75650;BME280;64245;51.282;22.494;2023-06-10T03:54:02;99071.16;;;15.69;96.21
75650;BME280;64245;51.282;22.494;2023-06-10T03:56:28;99042.25;;;15.53;96.50
75650;BME280;64245;51.282;22.494;2023-06-10T03:58:54;99066.47;;;15.78;95.47
75650;BME280;64245;51.282;22.494;2023-06-10T04:01:25;99060.31;;;15.84;95.56
75650;BME280;64245;51.282;22.494;2023-06-10T04:03:50;99057.88;;;15.74;95.72
75650;BME280;64245;51.282;22.494;2023-06-10T04:06:20;99066.13;;;15.81;95.97
75650;BME280;64245;51.282;22.494;2023-06-10T04:08:50;99049.44;;;15.69;96.39
75650;BME280;64245;51.282;22.494;2023-06-10T04:11:17;99035.56;;;15.64;96.69
75650;BME280;64245;51.282;22.494;2023-06-10T04:13:44;99024.34;;;15.67;95.97
75650;BME280;64245;51.282;22.494;2023-06-10T04:16:11;99019.50;;;15.54;96.85
75650;BME280;64245;51.282;22.494;2023-06-10T04:18:37;99038.56;;;15.69;96.55
75650;BME280;64245;51.282;22.494;2023-06-10T04:21:03;99036.09;;;15.60;97.52
75650;BME280;64245;51.282;22.494;2023-06-10T04:23:29;99029.28;;;15.64;97.14
75650;BME280;64245;51.282;22.494;2023-06-10T04:25:55;99058.44;;;15.84;96.16
75650;BME280;64245;51.282;22.494;2023-06-10T04:28:21;99042.69;;;15.80;95.84
75650;BME280;64245;51.282;22.494;2023-06-10T04:30:48;99033.72;;;15.79;96.48
75650;BME280;64245;51.282;22.494;2023-06-10T04:33:14;99048.63;;;15.83;96.38
75650;BME280;64245;51.282;22.494;2023-06-10T04:35:40;99024.81;;;15.71;96.76
75650;BME280;64245;51.282;22.494;2023-06-10T04:38:06;99045.53;;;15.86;96.44
75650;BME280;64245;51.282;22.494;2023-06-10T04:40:32;99033.88;;;15.78;96.64
75650;BME280;64245;51.282;22.494;2023-06-10T04:42:58;99052.28;;;15.91;96.83
75650;BME280;64245;51.282;22.494;2023-06-10T04:45:25;99027.16;;;15.74;97.92
75650;BME280;64245;51.282;22.494;2023-06-10T04:47:53;99046.75;;;15.84;97.56
75650;BME280;64245;51.282;22.494;2023-06-10T04:50:26;99065.38;;;15.87;97.64
75650;BME280;64245;51.282;22.494;2023-06-10T04:52:52;99045.81;;;15.77;97.64
75650;BME280;64245;51.282;22.494;2023-06-10T04:55:20;99068.81;;;15.81;98.88
75650;BME280;64245;51.282;22.494;2023-06-10T04:57:48;99060.69;;;15.81;98.50
75650;BME280;64245;51.282;22.494;2023-06-10T05:00:18;99073.41;;;15.80;99.22
75650;BME280;64245;51.282;22.494;2023-06-10T05:02:45;99066.25;;;15.65;100.00
75650;BME280;64245;51.282;22.494;2023-06-10T05:05:17;99045.09;;;15.60;99.52
75650;BME280;64245;51.282;22.494;2023-06-10T05:07:44;99056.06;;;15.67;100.00
75650;BME280;64245;51.282;22.494;2023-06-10T05:10:10;99061.06;;;15.55;100.00
75650;BME280;64245;51.282;22.494;2023-06-10T05:12:40;99054.72;;;15.63;100.00
75650;BME280;64245;51.282;22.494;2023-06-10T05:15:06;99066.06;;;15.66;100.00
75650;BME280;64245;51.282;22.494;2023-06-10T05:17:33;99071.31;;;15.91;99.78
75650;BME280;64245;51.282;22.494;2023-06-10T05:49:59;99115.63;;;16.06;99.44
75650;BME280;64245;51.282;22.494;2023-06-10T05:52:49;99118.47;;;16.12;99.06
75650;BME280;64245;51.282;22.494;2023-06-10T05:55:14;99127.84;;;15.87;99.87
75650;BME280;64245;51.282;22.494;2023-06-10T05:57:44;99109.81;;;15.71;100.00
75650;BME280;64245;51.282;22.494;2023-06-10T06:00:10;99124.78;;;15.90;100.00
75650;BME280;64245;51.282;22.494;2023-06-10T06:02:38;99125.34;;;16.00;100.00
75650;BME280;64245;51.282;22.494;2023-06-10T06:05:06;99112.34;;;15.96;99.29
75650;BME280;64245;51.282;22.494;2023-06-10T06:07:40;99139.38;;;16.27;98.51
75650;BME280;64245;51.282;22.494;2023-06-10T06:10:06;99125.69;;;16.20;98.16
75650;BME280;64245;51.282;22.494;2023-06-10T06:12:33;99125.44;;;16.30;98.61
75650;BME280;64245;51.282;22.494;2023-06-10T06:15:27;99125.06;;;16.47;97.25
75650;BME280;64245;51.282;22.494;2023-06-10T06:18:10;99130.78;;;16.38;97.29
75650;BME280;64245;51.282;22.494;2023-06-10T06:20:36;99126.00;;;16.40;97.36
75650;BME280;64245;51.282;22.494;2023-06-10T06:23:02;99132.16;;;16.71;96.35
75650;BME280;64245;51.282;22.494;2023-06-10T06:25:28;99135.44;;;16.67;94.96
75650;BME280;64245;51.282;22.494;2023-06-10T06:27:54;99131.91;;;16.58;95.97
75650;BME280;64245;51.282;22.494;2023-06-10T06:30:25;99120.47;;;16.33;95.55
75650;BME280;64245;51.282;22.494;2023-06-10T06:32:50;99124.22;;;16.32;96.37
75650;BME280;64245;51.282;22.494;2023-06-10T06:35:27;99151.59;;;16.60;95.87
75650;BME280;64245;51.282;22.494;2023-06-10T06:38:29;99146.72;;;16.55;94.40
75650;BME280;64245;51.282;22.494;2023-06-10T06:41:11;99137.34;;;16.58;95.02
75650;BME280;64245;51.282;22.494;2023-06-10T06:43:37;99149.13;;;16.73;95.42
75650;BME280;64245;51.282;22.494;2023-06-10T06:46:06;99135.53;;;16.73;93.48
75650;BME280;64245;51.282;22.494;2023-06-10T07:41:03;99159.47;;;18.78;81.63
75650;BME280;64245;51.282;22.494;2023-06-10T07:43:36;99152.59;;;18.82;80.57
75650;BME280;64245;51.282;22.494;2023-06-10T07:46:21;99176.88;;;19.05;79.37
75650;BME280;64245;51.282;22.494;2023-06-10T07:49:23;99135.13;;;18.76;78.04
75650;BME280;64245;51.282;22.494;2023-06-10T07:52:09;99177.28;;;18.74;80.11
75650;BME280;64245;51.282;22.494;2023-06-10T07:55:13;99180.69;;;18.54;79.86
75650;BME280;64245;51.282;22.494;2023-06-10T07:58:17;99159.09;;;18.32;81.14
75650;BME280;64245;51.282;22.494;2023-06-10T08:05:24;99200.81;;;18.75;78.81
75650;BME280;64245;51.282;22.494;2023-06-10T08:08:48;99210.06;;;18.31;79.85
75650;BME280;64245;51.282;22.494;2023-06-10T08:12:19;99185.59;;;18.38;80.97
75650;BME280;64245;51.282;22.494;2023-06-10T08:18:47;99211.69;;;18.47;83.02
75650;BME280;64245;51.282;22.494;2023-06-10T08:22:06;99200.53;;;18.42;82.37
75650;BME280;64245;51.282;22.494;2023-06-10T08:25:09;99210.69;;;18.76;81.11
75650;BME280;64245;51.282;22.494;2023-06-10T08:31:35;99217.63;;;18.78;80.52
75650;BME280;64245;51.282;22.494;2023-06-10T08:34:39;99223.41;;;18.69;82.00
75650;BME280;64245;51.282;22.494;2023-06-10T08:37:51;99199.75;;;18.76;80.69
75650;BME280;64245;51.282;22.494;2023-06-10T08:41:06;99227.59;;;18.65;79.88
75650;BME280;64245;51.282;22.494;2023-06-10T08:44:22;99220.94;;;18.52;81.28
75650;BME280;64245;51.282;22.494;2023-06-10T08:47:22;99226.84;;;18.56;81.64
75650;BME280;64245;51.282;22.494;2023-06-10T08:49:57;99226.59;;;18.72;81.61
75650;BME280;64245;51.282;22.494;2023-06-10T08:52:37;99200.94;;;18.94;78.88
75650;BME280;64245;51.282;22.494;2023-06-10T08:55:44;99240.59;;;19.25;76.97
75650;BME280;64245;51.282;22.494;2023-06-10T08:59:11;99223.88;;;19.89;76.78
75650;BME280;64245;51.282;22.494;2023-06-10T09:02:10;99225.78;;;19.88;76.33
75650;BME280;64245;51.282;22.494;2023-06-10T09:04:38;99204.09;;;19.80;75.89
75650;BME280;64245;51.282;22.494;2023-06-10T09:07:14;99205.16;;;19.79;75.69
75650;BME280;64245;51.282;22.494;2023-06-10T09:10:03;99210.91;;;20.11;77.57
75650;BME280;64245;51.282;22.494;2023-06-10T09:12:42;99238.75;;;20.54;74.14
75650;BME280;64245;51.282;22.494;2023-06-10T09:15:19;99235.41;;;20.58;73.94
75650;BME280;64245;51.282;22.494;2023-06-10T09:18:26;99220.16;;;21.09;69.67
75650;BME280;64245;51.282;22.494;2023-06-10T09:24:00;99222.09;;;20.82;69.78
75650;BME280;64245;51.282;22.494;2023-06-10T09:26:49;99220.22;;;20.95;71.90
75650;BME280;64245;51.282;22.494;2023-06-10T09:29:54;99203.13;;;21.07;68.77
75650;BME280;64245;51.282;22.494;2023-06-10T09:33:39;99237.03;;;21.77;66.06
75650;BME280;64245;51.282;22.494;2023-06-10T09:36:23;99244.56;;;21.36;66.86
75650;BME280;64245;51.282;22.494;2023-06-10T09:39:24;99237.38;;;21.42;67.16
75650;BME280;64245;51.282;22.494;2023-06-10T09:42:39;99228.34;;;21.86;64.78
75650;BME280;64245;51.282;22.494;2023-06-10T09:45:46;99237.78;;;21.97;63.76
75650;BME280;64245;51.282;22.494;2023-06-10T09:49:25;99213.56;;;21.49;62.78
75650;BME280;64245;51.282;22.494;2023-06-10T09:52:55;99249.03;;;21.04;62.82
75650;BME280;64245;51.282;22.494;2023-06-10T09:56:12;99254.31;;;20.66;64.92
75650;BME280;64245;51.282;22.494;2023-06-10T09:59:12;99237.28;;;20.58;66.13
75650;BME280;64245;51.282;22.494;2023-06-10T10:01:55;99241.06;;;20.96;65.81
75650;BME280;64245;51.282;22.494;2023-06-10T10:04:53;99238.09;;;21.04;63.40
75650;BME280;64245;51.282;22.494;2023-06-10T10:07:46;99252.00;;;20.83;64.95
75650;BME280;64245;51.282;22.494;2023-06-10T10:11:02;99245.03;;;20.81;64.01
75650;BME280;64245;51.282;22.494;2023-06-10T10:13:53;99247.19;;;20.72;62.74
75650;BME280;64245;51.282;22.494;2023-06-10T10:16:37;99234.06;;;21.07;61.83
75650;BME280;64245;51.282;22.494;2023-06-10T10:19:27;99230.19;;;21.54;60.27
75650;BME280;64245;51.282;22.494;2023-06-10T10:22:02;99251.72;;;21.44;61.89
75650;BME280;64245;51.282;22.494;2023-06-10T10:24:49;99241.25;;;21.01;59.44
75650;BME280;64245;51.282;22.494;2023-06-10T10:27:20;99244.63;;;20.90;62.55
75650;BME280;64245;51.282;22.494;2023-06-10T10:29:58;99248.41;;;20.83;61.61
75650;BME280;64245;51.282;22.494;2023-06-10T10:32:32;99242.06;;;21.22;58.71
75650;BME280;64245;51.282;22.494;2023-06-10T10:35:19;99261.47;;;21.33;60.79
75650;BME280;64245;51.282;22.494;2023-06-10T10:37:56;99227.25;;;21.49;59.28
75650;BME280;64245;51.282;22.494;2023-06-10T10:40:29;99246.16;;;21.64;60.50
75650;BME280;64245;51.282;22.494;2023-06-10T10:43:21;99226.69;;;21.21;61.16
75650;BME280;64245;51.282;22.494;2023-06-10T10:46:12;99253.88;;;21.09;60.70
75650;BME280;64245;51.282;22.494;2023-06-10T10:48:41;99251.38;;;20.94;59.84
75650;BME280;64245;51.282;22.494;2023-06-10T10:51:10;99258.50;;;21.28;61.39
75650;BME280;64245;51.282;22.494;2023-06-10T10:53:39;99240.38;;;21.27;60.46
75650;BME280;64245;51.282;22.494;2023-06-10T10:56:15;99260.00;;;21.82;58.80
75650;BME280;64245;51.282;22.494;2023-06-10T10:59:05;99233.84;;;21.86;59.25
75650;BME280;64245;51.282;22.494;2023-06-10T11:01:44;99257.91;;;22.54;56.93
75650;BME280;64245;51.282;22.494;2023-06-10T11:04:21;99245.38;;;22.08;58.48
75650;BME280;64245;51.282;22.494;2023-06-10T11:07:08;99249.44;;;21.86;59.56
75650;BME280;64245;51.282;22.494;2023-06-10T11:09:36;99270.31;;;21.35;61.09
75650;BME280;64245;51.282;22.494;2023-06-10T11:12:04;99271.59;;;20.80;61.61
75650;BME280;64245;51.282;22.494;2023-06-10T11:14:35;99253.06;;;20.56;63.18
75650;BME280;64245;51.282;22.494;2023-06-10T11:17:18;99262.31;;;20.61;64.05
75650;BME280;64245;51.282;22.494;2023-06-10T11:19:47;99219.19;;;20.57;64.67
75650;BME280;64245;51.282;22.494;2023-06-10T11:22:18;99266.13;;;20.54;64.92
75650;BME280;64245;51.282;22.494;2023-06-10T11:24:50;99250.88;;;20.18;65.48
75650;BME280;64245;51.282;22.494;2023-06-10T11:27:22;99257.28;;;20.39;64.12
75650;BME280;64245;51.282;22.494;2023-06-10T11:32:35;99266.72;;;21.09;65.56
75650;BME280;64245;51.282;22.494;2023-06-10T11:35:07;99240.38;;;21.27;65.56
75650;BME280;64245;51.282;22.494;2023-06-10T11:37:38;99258.66;;;21.47;63.68
75650;BME280;64245;51.282;22.494;2023-06-10T11:40:11;99251.13;;;21.22;63.42
75650;BME280;64245;51.282;22.494;2023-06-10T11:42:40;99249.91;;;20.92;65.34
75650;BME280;64245;51.282;22.494;2023-06-10T11:45:08;99264.00;;;21.15;66.13
75650;BME280;64245;51.282;22.494;2023-06-10T11:47:34;99270.94;;;21.31;65.19
75650;BME280;64245;51.282;22.494;2023-06-10T11:50:08;99256.91;;;22.17;63.24
75650;BME280;64245;51.282;22.494;2023-06-10T11:52:34;99253.22;;;22.61;63.09
75650;BME280;64245;51.282;22.494;2023-06-10T11:55:09;99231.56;;;23.64;59.62
75650;BME280;64245;51.282;22.494;2023-06-10T11:57:36;99249.50;;;25.09;52.45
75650;BME280;64245;51.282;22.494;2023-06-10T12:00:06;99223.81;;;24.74;52.54
75650;BME280;64245;51.282;22.494;2023-06-10T12:02:33;99234.34;;;23.94;56.27
75650;BME280;64245;51.282;22.494;2023-06-10T12:05:12;99245.22;;;23.70;55.25
75650;BME280;64245;51.282;22.494;2023-06-10T12:07:39;99247.25;;;24.41;56.33
75650;BME280;64245;51.282;22.494;2023-06-10T12:10:05;99223.88;;;25.21;54.76
75650;BME280;64245;51.282;22.494;2023-06-10T12:12:37;99235.00;;;25.02;51.46
75650;BME280;64245;51.282;22.494;2023-06-10T12:15:03;99237.59;;;26.07;51.88
75650;BME280;64245;51.282;22.494;2023-06-10T12:20:03;99213.53;;;26.48;49.58
75650;BME280;64245;51.282;22.494;2023-06-10T12:25:05;99230.13;;;27.70;44.48
75650;BME280;64245;51.282;22.494;2023-06-10T12:27:35;99208.66;;;27.22;45.55
75650;BME280;64245;51.282;22.494;2023-06-10T12:30:04;99213.66;;;27.42;46.95
75650;BME280;64245;51.282;22.494;2023-06-10T12:32:40;99229.28;;;27.53;44.84
75650;BME280;64245;51.282;22.494;2023-06-10T12:35:07;99215.06;;;28.10;44.66
75650;BME280;64245;51.282;22.494;2023-06-10T12:37:34;99212.69;;;27.70;43.39
75650;BME280;64245;51.282;22.494;2023-06-10T12:40:02;99217.88;;;27.66;43.02
75650;BME280;64245;51.282;22.494;2023-06-10T12:42:30;99198.94;;;27.80;43.22
75650;BME280;64245;51.282;22.494;2023-06-10T12:44:57;99180.88;;;28.80;40.61
75650;BME280;64245;51.282;22.494;2023-06-10T12:47:38;99211.91;;;29.61;40.90
75650;BME280;64245;51.282;22.494;2023-06-10T12:50:05;99194.88;;;28.09;41.58
75650;BME280;64245;51.282;22.494;2023-06-10T12:52:31;99209.91;;;27.53;44.21
75650;BME280;64245;51.282;22.494;2023-06-10T12:54:58;99183.06;;;26.60;46.38
75650;BME280;64245;51.282;22.494;2023-06-10T12:57:24;99190.00;;;26.45;50.27
75650;BME280;64245;51.282;22.494;2023-06-10T12:59:50;99203.31;;;25.63;48.15
75650;BME280;64245;51.282;22.494;2023-06-10T13:02:21;99185.13;;;25.39;50.21
75650;BME280;64245;51.282;22.494;2023-06-10T13:05:00;99192.00;;;25.13;49.70
75650;BME280;64245;51.282;22.494;2023-06-10T13:07:26;99198.84;;;25.74;48.91
75650;BME280;64245;51.282;22.494;2023-06-10T13:09:53;99189.09;;;24.73;52.39
75650;BME280;64245;51.282;22.494;2023-06-10T13:12:18;99201.38;;;24.47;51.70
75650;BME280;64245;51.282;22.494;2023-06-10T13:14:45;99173.75;;;25.35;49.03
75650;BME280;64245;51.282;22.494;2023-06-10T13:17:10;99174.47;;;26.11;47.29
75650;BME280;64245;51.282;22.494;2023-06-10T13:19:36;99189.63;;;26.25;47.24
75650;BME280;64245;51.282;22.494;2023-06-10T13:22:02;99175.50;;;25.93;48.03
75650;BME280;64245;51.282;22.494;2023-06-10T13:24:28;99166.53;;;27.37;44.81
75650;BME280;64245;51.282;22.494;2023-06-10T13:26:54;99164.56;;;27.54;44.05
75650;BME280;64245;51.282;22.494;2023-06-10T13:29:22;99178.44;;;28.25;45.09
75650;BME280;64245;51.282;22.494;2023-06-10T13:31:47;99177.53;;;28.46;40.86
75650;BME280;64245;51.282;22.494;2023-06-10T13:34:14;99160.16;;;28.02;43.86
75650;BME280;64245;51.282;22.494;2023-06-10T13:36:39;99163.72;;;28.88;38.50
75650;BME280;64245;51.282;22.494;2023-06-10T13:39:06;99154.94;;;28.05;40.08
75650;BME280;64245;51.282;22.494;2023-06-10T13:41:32;99168.16;;;28.89;40.09
75650;BME280;64245;51.282;22.494;2023-06-10T13:43:59;99159.41;;;29.07;39.18
75650;BME280;64245;51.282;22.494;2023-06-10T13:46:24;99176.88;;;28.71;40.81
75650;BME280;64245;51.282;22.494;2023-06-10T13:48:52;99179.50;;;29.25;40.58
75650;BME280;64245;51.282;22.494;2023-06-10T13:51:18;99172.28;;;28.81;40.59
75650;BME280;64245;51.282;22.494;2023-06-10T13:53:44;99169.88;;;30.10;36.88
75650;BME280;64245;51.282;22.494;2023-06-10T13:56:11;99157.00;;;29.83;36.48
75650;BME280;64245;51.282;22.494;2023-06-10T13:58:38;99164.69;;;27.42;41.31
75650;BME280;64245;51.282;22.494;2023-06-10T14:01:05;99169.31;;;26.03;45.71
75650;BME280;64245;51.282;22.494;2023-06-10T14:03:32;99149.53;;;24.44;49.75
75650;BME280;64245;51.282;22.494;2023-06-10T14:05:57;99174.38;;;25.77;46.84
75650;BME280;64245;51.282;22.494;2023-06-10T14:08:24;99158.19;;;26.43;46.99
75650;BME280;64245;51.282;22.494;2023-06-10T14:10:50;99171.53;;;27.18;42.74
75650;BME280;64245;51.282;22.494;2023-06-10T14:13:18;99154.16;;;27.01;42.18
75650;BME280;64245;51.282;22.494;2023-06-10T14:15:44;99187.97;;;27.25;41.42
75650;BME280;64245;51.282;22.494;2023-06-10T14:18:11;99166.47;;;27.97;40.02
75650;BME280;64245;51.282;22.494;2023-06-10T14:20:37;99184.41;;;28.75;40.26
75650;BME280;64245;51.282;22.494;2023-06-10T14:23:02;99153.84;;;28.65;39.32
75650;BME280;64245;51.282;22.494;2023-06-10T14:25:28;99182.72;;;27.06;41.81
75650;BME280;64245;51.282;22.494;2023-06-10T14:27:54;99160.72;;;28.26;38.26
75650;BME280;64245;51.282;22.494;2023-06-10T14:30:21;99173.53;;;28.37;38.82
75650;BME280;64245;51.282;22.494;2023-06-10T14:32:46;99163.47;;;28.26;39.72
75650;BME280;64245;51.282;22.494;2023-06-10T14:35:13;99188.44;;;28.95;39.23
75650;BME280;64245;51.282;22.494;2023-06-10T14:37:38;99167.09;;;28.26;40.80
75650;BME280;64245;51.282;22.494;2023-06-10T14:40:05;99165.34;;;28.52;39.38
75650;BME280;64245;51.282;22.494;2023-06-10T14:42:31;99171.56;;;28.05;39.70
75650;BME280;64245;51.282;22.494;2023-06-10T14:45:00;99180.53;;;27.08;41.96
75650;BME280;64245;51.282;22.494;2023-06-10T14:47:26;99159.34;;;26.80;42.18
75650;BME280;64245;51.282;22.494;2023-06-10T14:49:52;99170.78;;;26.22;43.23
75650;BME280;64245;51.282;22.494;2023-06-10T14:52:18;99156.31;;;26.15;44.32
75650;BME280;64245;51.282;22.494;2023-06-10T14:54:47;99169.25;;;27.53;40.98
75650;BME280;64245;51.282;22.494;2023-06-10T14:57:13;99182.59;;;27.78;40.77
75650;BME280;64245;51.282;22.494;2023-06-10T14:59:39;99184.63;;;27.44;41.73
75650;BME280;64245;51.282;22.494;2023-06-10T15:02:05;99189.25;;;26.83;44.57
75650;BME280;64245;51.282;22.494;2023-06-10T15:04:32;99175.78;;;26.54;45.20
75650;BME280;64245;51.282;22.494;2023-06-10T15:06:58;99187.72;;;27.92;41.70
75650;BME280;64245;51.282;22.494;2023-06-10T15:09:26;99170.41;;;26.97;43.80